Time;durP1;ratioP1;P1;durP2;ratioP2;P2;SDS_P1;SDS_P2;PMS_P1;PMS_P2;Temp;Humidity;BMP_temperature;BMP_pressure;BME280_temperature;BME280_humidity;BME280_pressure;Samples;Min_cycle;Max_cycle;Signal;HPM_P1;HPM_P2
2022/12/14 00:00:40;;;;;;;;;;;;;;;-3.79;85.42;95126.66;5094674;28;19949;-74
2022/12/14 00:03:06;;;;;;;;;;;;;;;-3.84;87.56;95118.69;5094383;28;19987;-74
2022/12/14 00:05:32;;;;;;;;;;;;;;;-3.87;87.10;95112.09;5094166;28;20313;-74
2022/12/14 00:07:58;;;;;;;;;;;;;;;-3.88;87.52;95110.50;5094448;28;19958;-74
2022/12/14 00:10:24;;;;;;;;;;;;;;;-3.88;87.57;95104.59;5093240;28;19954;-74
2022/12/14 00:12:50;;;;;;;;;;;;;;;-3.91;89.18;95102.34;5094453;28;19949;-74
2022/12/14 00:15:16;;;;;;;;;;;;;;;-3.94;88.96;95097.56;5094140;28;19999;-74
2022/12/14 00:17:42;;;;;;;;;;;;;;;-3.94;89.14;95077.88;5094377;28;19955;-74
2022/12/14 00:20:08;;;;;;;;;;;;;;;-3.94;89.04;95071.97;5093975;28;19952;-74
2022/12/14 00:22:34;;;;;;;;;;;;;;;-3.99;89.03;95069.06;5094085;28;20305;-74
2022/12/14 00:25:01;;;;;;;;;;;;;;;-4.01;89.86;95076.09;5093721;28;19992;-74
2022/12/14 00:27:27;;;;;;;;;;;;;;;-3.99;90.32;95067.31;5094154;28;20434;-74
2022/12/14 00:29:53;;;;;;;;;;;;;;;-4.01;91.15;95063.31;5092793;28;19998;-74
2022/12/14 00:32:18;;;;;;;;;;;;;;;-4.06;90.29;95053.56;5093940;28;20393;-74
2022/12/14 00:34:44;;;;;;;;;;;;;;;-4.12;91.76;95059.31;5093861;28;20043;-74
2022/12/14 00:37:10;;;;;;;;;;;;;;;-4.14;91.13;95067.16;5094391;28;20023;-74
2022/12/14 00:39:36;;;;;;;;;;;;;;;-4.10;91.37;95070.97;5093911;28;20042;-74
2022/12/14 00:42:02;;;;;;;;;;;;;;;-4.08;90.37;95063.16;5094421;28;19955;-74
2022/12/14 00:44:28;;;;;;;;;;;;;;;-4.04;91.59;95077.22;5093800;28;20471;-74
2022/12/14 00:46:54;;;;;;;;;;;;;;;-4.00;90.85;95065.72;5093812;28;20009;-74
2022/12/14 00:49:19;;;;;;;;;;;;;;;-3.95;90.43;95057.53;5093648;28;19955;-74
2022/12/14 00:51:45;;;;;;;;;;;;;;;-3.95;91.00;95071.16;5094026;28;20304;-74
2022/12/14 00:54:11;;;;;;;;;;;;;;;-3.93;92.17;95060.72;5094061;28;20026;-74
2022/12/14 00:56:37;;;;;;;;;;;;;;;-3.91;90.93;95056.25;5093634;28;19942;-74
2022/12/14 00:59:03;;;;;;;;;;;;;;;-3.87;91.28;95063.44;5094046;28;19948;-74
2022/12/14 01:01:29;;;;;;;;;;;;;;;-3.88;91.08;95066.19;5093699;28;19950;-74
2022/12/14 01:04:15;;;;;;;;;;;;;;;-3.90;91.76;95068.09;5093749;28;19953;-74
2022/12/14 01:06:47;;;;;;;;;;;;;;;-3.92;90.88;95065.69;5079016;28;19962;-74
2022/12/14 01:09:13;;;;;;;;;;;;;;;-3.87;91.60;95066.00;5094082;28;19944;-74
2022/12/14 01:11:39;;;;;;;;;;;;;;;-3.82;91.35;95059.59;5093745;28;19946;-74
2022/12/14 01:14:06;;;;;;;;;;;;;;;-3.81;91.25;95056.88;5093855;28;19949;-74
2022/12/14 01:16:31;;;;;;;;;;;;;;;-3.78;91.23;95055.75;5093244;28;19956;-74
2022/12/14 01:18:58;;;;;;;;;;;;;;;-3.77;91.15;95047.13;5093945;28;20382;-74
2022/12/14 01:21:25;;;;;;;;;;;;;;;-3.77;91.14;95053.03;5093320;28;19958;-74
2022/12/14 01:23:52;;;;;;;;;;;;;;;-3.76;90.95;95054.66;5093451;28;19956;-74
2022/12/14 01:26:18;;;;;;;;;;;;;;;-3.74;91.06;95055.28;5093145;28;19964;-74
2022/12/14 01:28:45;;;;;;;;;;;;;;;-3.76;91.25;95062.31;5091994;28;19947;-74
2022/12/14 01:31:12;;;;;;;;;;;;;;;-3.78;91.42;95056.56;5093370;28;19946;-74
2022/12/14 01:33:38;;;;;;;;;;;;;;;-3.81;91.19;95051.75;5093217;28;19952;-74
2022/12/14 01:36:05;;;;;;;;;;;;;;;-3.83;91.43;95050.31;5095711;28;19954;-74
2022/12/14 01:38:31;;;;;;;;;;;;;;;-3.87;92.04;95050.63;5097188;28;20330;-74
2022/12/14 01:40:57;;;;;;;;;;;;;;;-3.87;91.75;95045.50;5096976;28;20046;-74
2022/12/14 01:43:23;;;;;;;;;;;;;;;-3.85;92.29;95049.69;5097200;28;19958;-74
2022/12/14 01:45:52;;;;;;;;;;;;;;;-3.90;92.53;95050.19;5097136;28;20278;-74
2022/12/14 01:48:18;;;;;;;;;;;;;;;-3.89;92.89;95042.31;5097019;28;19956;-74
2022/12/14 01:50:44;;;;;;;;;;;;;;;-3.91;92.42;95034.00;5097053;28;19958;-74
2022/12/14 01:53:14;;;;;;;;;;;;;;;-3.92;92.09;95039.31;5096840;28;19960;-74
2022/12/14 01:55:42;;;;;;;;;;;;;;;-3.92;92.49;95022.16;5096496;28;19948;-74
2022/12/14 01:58:11;;;;;;;;;;;;;;;-3.92;92.52;95027.28;5096580;28;20388;-74
2022/12/14 02:00:37;;;;;;;;;;;;;;;-3.88;92.60;95028.56;5096905;28;19954;-74
2022/12/14 02:03:12;;;;;;;;;;;;;;;-3.85;92.94;95027.44;5096818;28;19944;-74
2022/12/14 02:05:42;;;;;;;;;;;;;;;-3.79;92.53;95026.00;5097031;28;19955;-73
2022/12/14 02:08:08;;;;;;;;;;;;;;;-3.77;92.18;95029.19;5096526;28;19949;-74
2022/12/14 02:10:34;;;;;;;;;;;;;;;-3.75;91.17;95024.69;5095049;28;19948;-74
2022/12/14 02:13:08;;;;;;;;;;;;;;;-3.79;92.39;95031.09;5096779;28;19959;-74
2022/12/14 02:15:35;;;;;;;;;;;;;;;-3.89;92.74;95029.50;5096479;28;19957;-74
2022/12/14 02:18:03;;;;;;;;;;;;;;;-3.89;92.98;95026.16;5096518;28;20306;-74
2022/12/14 02:20:34;;;;;;;;;;;;;;;-3.90;94.35;95024.56;5095180;28;19962;-74
2022/12/14 02:23:03;;;;;;;;;;;;;;;-3.91;93.32;95021.19;5096273;28;20421;-74
2022/12/14 02:25:38;;;;;;;;;;;;;;;-3.89;93.41;95021.03;5096449;28;19955;-74
2022/12/14 02:28:23;;;;;;;;;;;;;;;-3.89;92.95;95006.47;5081650;28;20019;-74
2022/12/14 02:30:54;;;;;;;;;;;;;;;-3.88;93.79;95007.28;5096158;28;20324;-74
2022/12/14 02:33:26;;;;;;;;;;;;;;;-3.85;92.99;95016.41;5085522;28;20409;-74
2022/12/14 02:35:52;;;;;;;;;;;;;;;-3.83;93.44;95009.34;5080798;28;19965;-74
2022/12/14 02:38:21;;;;;;;;;;;;;;;-3.88;92.45;94995.28;5096445;28;20478;-74
2022/12/14 02:41:04;;;;;;;;;;;;;;;-3.91;92.54;94990.47;5095903;28;19969;-74
2022/12/14 02:43:35;;;;;;;;;;;;;;;-3.89;92.40;94982.63;5095998;28;20306;-74
2022/12/14 02:46:10;;;;;;;;;;;;;;;-3.87;92.74;94981.50;5095041;28;19968;-74
2022/12/14 02:48:38;;;;;;;;;;;;;;;-3.81;92.23;94981.81;5095649;28;19950;-74
2022/12/14 02:51:17;;;;;;;;;;;;;;;-3.75;92.27;94989.63;5095643;28;20496;-75
2022/12/14 02:54:09;;;;;;;;;;;;;;;-3.73;92.47;94979.22;5084504;28;19944;-74
2022/12/14 02:56:38;;;;;;;;;;;;;;;-3.76;92.17;94988.06;5074224;28;19958;-74
2022/12/14 02:59:06;;;;;;;;;;;;;;;-3.74;91.80;94981.00;5095522;28;19951;-74
2022/12/14 03:01:34;;;;;;;;;;;;;;;-3.76;91.80;94980.38;5095720;28;19953;-74
2022/12/14 03:04:00;;;;;;;;;;;;;;;-3.71;92.02;94975.53;5095462;28;19947;-74
2022/12/14 03:06:26;;;;;;;;;;;;;;;-3.66;92.06;94975.03;5094175;28;19967;-74
2022/12/14 03:08:54;;;;;;;;;;;;;;;-3.64;92.10;94975.66;5095402;28;19947;-74
2022/12/14 03:11:22;;;;;;;;;;;;;;;-3.61;92.29;94977.09;5095540;28;19943;-74
2022/12/14 03:13:54;;;;;;;;;;;;;;;-3.59;91.65;94959.78;5095197;28;19947;-74
2022/12/14 03:16:26;;;;;;;;;;;;;;;-3.57;91.04;94963.81;5095292;28;19962;-74
2022/12/14 03:19:02;;;;;;;;;;;;;;;-3.53;91.47;94967.63;5095119;28;19957;-74
2022/12/14 03:21:30;;;;;;;;;;;;;;;-3.49;91.71;94978.31;5095203;28;19955;-74
2022/12/14 03:23:58;;;;;;;;;;;;;;;-3.44;91.65;94980.38;5094925;28;19943;-74
2022/12/14 03:26:27;;;;;;;;;;;;;;;-3.39;91.58;94973.78;5095232;28;19964;-74
2022/12/14 03:28:56;;;;;;;;;;;;;;;-3.35;91.42;94971.69;5094984;28;19950;-74
2022/12/14 03:31:36;;;;;;;;;;;;;;;-3.32;91.31;94969.63;5094904;28;19945;-74
2022/12/14 03:34:04;;;;;;;;;;;;;;;-3.30;90.86;94956.59;5095048;28;19952;-75
2022/12/14 03:36:36;;;;;;;;;;;;;;;-3.27;91.21;94967.34;5077978;28;20446;-74
2022/12/14 03:39:03;;;;;;;;;;;;;;;-3.23;91.29;94954.97;5095471;28;20323;-74
2022/12/14 03:41:48;;;;;;;;;;;;;;;-3.19;91.49;94952.84;5094709;28;19946;-74
2022/12/14 03:44:14;;;;;;;;;;;;;;;-3.20;90.47;94951.28;5094638;28;20405;-74
2022/12/14 03:46:39;;;;;;;;;;;;;;;-3.22;90.87;94941.19;5094642;28;20003;-74
2022/12/14 03:49:14;;;;;;;;;;;;;;;-3.22;90.91;94945.53;5094626;28;20436;-74
2022/12/14 03:51:43;;;;;;;;;;;;;;;-3.21;91.43;94947.09;5094974;28;19952;-74
2022/12/14 03:54:15;;;;;;;;;;;;;;;-3.23;90.81;94938.78;5094487;28;19957;-74
2022/12/14 03:56:52;;;;;;;;;;;;;;;-3.25;91.40;94944.09;5094878;28;19962;-74
2022/12/14 03:59:31;;;;;;;;;;;;;;;-3.25;91.38;94938.97;5094630;28;20321;-76
2022/12/14 04:02:03;;;;;;;;;;;;;;;-3.21;91.68;94931.72;5094670;28;19951;-74
2022/12/14 04:04:32;;;;;;;;;;;;;;;-3.28;91.23;94918.78;5094253;28;19944;-74
2022/12/14 04:07:07;;;;;;;;;;;;;;;-3.33;92.40;94923.63;5094374;28;19959;-74
2022/12/14 04:09:44;;;;;;;;;;;;;;;-3.36;92.67;94917.09;5094244;28;19949;-74
2022/12/14 04:20:43;;;;;;;;;;;;;;;-3.32;92.57;94885.03;5094069;28;19942;-74
2022/12/14 04:23:11;;;;;;;;;;;;;;;-3.27;92.80;94893.00;5094383;28;19952;-74
2022/12/14 04:31:14;;;;;;;;;;;;;;;-3.14;92.58;94894.19;5093922;28;19952;-74
2022/12/14 04:33:47;;;;;;;;;;;;;;;-3.12;93.17;94887.94;5093942;28;20395;-74
2022/12/14 04:36:33;;;;;;;;;;;;;;;-3.12;93.12;94887.94;5093939;28;19949;-75
2022/12/14 04:39:01;;;;;;;;;;;;;;;-3.13;93.43;94881.22;5086477;28;19955;-74
2022/12/14 04:41:31;;;;;;;;;;;;;;;-3.17;94.19;94867.16;5092996;28;20358;-74
2022/12/14 04:44:00;;;;;;;;;;;;;;;-3.19;94.08;94875.94;5093781;28;20000;-74
2022/12/14 04:46:31;;;;;;;;;;;;;;;-3.23;94.87;94875.53;5093387;28;20353;-74
2022/12/14 04:49:09;;;;;;;;;;;;;;;-3.22;95.05;94866.06;5093731;28;19958;-75
2022/12/14 04:51:41;;;;;;;;;;;;;;;-3.24;95.02;94861.09;5094496;28;19948;-74
2022/12/14 04:54:15;;;;;;;;;;;;;;;-3.21;94.47;94852.25;5094120;28;19951;-74
2022/12/14 04:57:03;;;;;;;;;;;;;;;-3.20;94.84;94848.72;5092348;28;19943;-74
2022/12/14 04:59:29;;;;;;;;;;;;;;;-3.17;95.37;94848.38;5093839;28;19962;-74
2022/12/14 05:01:58;;;;;;;;;;;;;;;-3.16;95.60;94861.03;5093448;28;19949;-74
2022/12/14 05:04:31;;;;;;;;;;;;;;;-3.22;95.85;94837.84;5093836;28;19952;-74
2022/12/14 05:07:03;;;;;;;;;;;;;;;-3.22;96.15;94846.34;5093418;28;19955;-74
2022/12/14 05:09:33;;;;;;;;;;;;;;;-3.25;96.02;94841.56;5094625;28;19954;-74
2022/12/14 05:12:02;;;;;;;;;;;;;;;-3.25;96.74;94844.13;5097868;28;19950;-74
2022/12/14 05:14:47;;;;;;;;;;;;;;;-3.23;96.38;94838.81;5097652;28;19946;-74
2022/12/14 05:17:13;;;;;;;;;;;;;;;-3.21;96.62;94831.75;5097742;28;19947;-74
2022/12/14 05:19:46;;;;;;;;;;;;;;;-3.16;96.72;94834.59;5096271;28;19955;-74
2022/12/14 05:22:12;;;;;;;;;;;;;;;-3.12;96.09;94841.00;5097274;28;19950;-74
2022/12/14 05:24:38;;;;;;;;;;;;;;;-3.09;95.86;94833.75;5098017;28;20503;-74
2022/12/14 05:27:04;;;;;;;;;;;;;;;-3.04;95.84;94837.53;5096421;28;19966;-74
2022/12/14 05:29:30;;;;;;;;;;;;;;;-3.03;95.70;94827.13;5097229;28;19948;-74
2022/12/14 05:31:56;;;;;;;;;;;;;;;-3.02;95.05;94831.28;5097312;28;20019;-74
2022/12/14 05:34:22;;;;;;;;;;;;;;;-3.00;95.53;94820.84;5097161;28;20012;-74
2022/12/14 05:36:47;;;;;;;;;;;;;;;-3.01;95.29;94821.81;5095812;28;20076;-74
2022/12/14 05:39:14;;;;;;;;;;;;;;;-3.04;95.77;94810.16;5097003;28;20027;-74
2022/12/14 05:41:40;;;;;;;;;;;;;;;-3.04;95.60;94806.75;5097017;28;19951;-74
2022/12/14 05:44:06;;;;;;;;;;;;;;;-3.04;96.13;94820.41;5096507;28;19981;-73
2022/12/14 05:46:32;;;;;;;;;;;;;;;-3.10;96.33;94814.19;5096879;28;19948;-74
2022/12/14 05:48:58;;;;;;;;;;;;;;;-3.11;96.49;94822.06;5097096;28;19957;-74
2022/12/14 05:51:24;;;;;;;;;;;;;;;-3.11;96.29;94815.19;5096760;28;20008;-74
2022/12/14 05:53:50;;;;;;;;;;;;;;;-3.10;95.75;94818.53;5096898;28;19946;-74
2022/12/14 05:56:16;;;;;;;;;;;;;;;-3.09;95.78;94807.28;5096775;28;19962;-74
2022/12/14 05:58:42;;;;;;;;;;;;;;;-3.04;96.40;94807.59;5096877;28;20317;-74
2022/12/14 06:01:09;;;;;;;;;;;;;;;-3.01;96.11;94791.06;5096655;28;19946;-74
2022/12/14 06:03:35;;;;;;;;;;;;;;;-2.99;96.47;94795.03;5096687;28;19948;-74
2022/12/14 06:06:11;;;;;;;;;;;;;;;-2.94;96.64;94799.63;5096723;28;19945;-74
2022/12/14 06:08:39;;;;;;;;;;;;;;;-2.91;96.38;94807.78;5096773;28;19964;-74
2022/12/14 06:11:07;;;;;;;;;;;;;;;-2.89;96.67;94795.56;5096399;28;20421;-74
2022/12/14 06:13:37;;;;;;;;;;;;;;;-2.86;96.49;94794.44;5096463;28;20311;-74
2022/12/14 06:16:06;;;;;;;;;;;;;;;-2.83;95.96;94790.69;5096430;28;19964;-74
2022/12/14 06:18:32;;;;;;;;;;;;;;;-2.82;95.79;94790.53;5095238;28;19941;-74
2022/12/14 06:20:58;;;;;;;;;;;;;;;-2.79;95.75;94785.06;5095257;28;20367;-74
2022/12/14 06:23:24;;;;;;;;;;;;;;;-2.76;95.37;94789.84;5096688;28;19972;-74
2022/12/14 06:25:54;;;;;;;;;;;;;;;-2.74;95.61;94781.97;5096064;28;19943;-74
2022/12/14 06:28:20;;;;;;;;;;;;;;;-2.73;95.68;94775.84;5096055;28;20350;-74
2022/12/14 06:30:46;;;;;;;;;;;;;;;-2.72;95.27;94783.38;5096310;28;19957;-74
2022/12/14 06:33:13;;;;;;;;;;;;;;;-2.74;95.32;94784.53;5096384;28;19951;-73
2022/12/14 06:35:42;;;;;;;;;;;;;;;-2.74;95.23;94787.09;5095978;28;19953;-74
2022/12/14 06:38:08;;;;;;;;;;;;;;;-2.73;95.34;94771.53;5095996;28;20341;-74
2022/12/14 06:40:34;;;;;;;;;;;;;;;-2.78;95.90;94771.25;5095913;28;19989;-74
2022/12/14 06:43:00;;;;;;;;;;;;;;;-2.84;95.46;94766.84;5094776;28;20008;-74
2022/12/14 06:45:27;;;;;;;;;;;;;;;-2.90;96.10;94754.72;5096070;28;19981;-74
2022/12/14 06:47:53;;;;;;;;;;;;;;;-2.90;96.20;94752.16;5096001;28;19952;-74
2022/12/14 06:50:19;;;;;;;;;;;;;;;-2.88;96.40;94763.03;5095904;28;20305;-74
2022/12/14 06:52:48;;;;;;;;;;;;;;;-2.88;95.88;94755.34;5094498;28;19984;-74
2022/12/14 06:55:14;;;;;;;;;;;;;;;-2.90;96.19;94758.09;5095593;28;20371;-74
2022/12/14 06:57:40;;;;;;;;;;;;;;;-2.91;96.95;94756.47;5095743;28;19952;-74
2022/12/14 07:00:08;;;;;;;;;;;;;;;-2.90;96.84;94749.56;5095621;28;20029;-74
2022/12/14 07:02:34;;;;;;;;;;;;;;;-2.88;96.94;94752.75;5095467;28;19950;-74
2022/12/14 07:05:00;;;;;;;;;;;;;;;-2.86;96.62;94751.63;5095638;28;20397;-74
2022/12/14 07:07:26;;;;;;;;;;;;;;;-2.82;96.60;94756.41;5095429;28;20408;-74
2022/12/14 07:09:52;;;;;;;;;;;;;;;-2.79;96.89;94753.47;5095852;28;20369;-74
2022/12/14 07:12:18;;;;;;;;;;;;;;;-2.76;96.51;94748.00;5095466;28;20307;-74
2022/12/14 07:14:43;;;;;;;;;;;;;;;-2.78;96.24;94744.81;5095224;28;19982;-74
2022/12/14 07:17:09;;;;;;;;;;;;;;;-2.85;96.88;94747.31;5095392;28;20003;-74
2022/12/14 07:19:35;;;;;;;;;;;;;;;-2.87;97.51;94737.22;5095207;28;20479;-74
2022/12/14 07:22:03;;;;;;;;;;;;;;;-2.88;98.38;94737.38;5095113;28;20003;-74
2022/12/14 07:24:29;;;;;;;;;;;;;;;-2.91;99.47;94725.72;5095302;28;19963;-74
2022/12/14 07:26:55;;;;;;;;;;;;;;;-2.94;99.12;94730.38;5094868;28;19947;-74
2022/12/14 07:29:21;;;;;;;;;;;;;;;-2.97;99.84;94726.41;5095011;28;19958;-76
2022/12/14 07:31:47;;;;;;;;;;;;;;;-2.99;99.04;94718.09;5093542;28;19955;-74
2022/12/14 07:34:13;;;;;;;;;;;;;;;-2.96;99.26;94724.63;5094974;28;20400;-74
2022/12/14 07:36:39;;;;;;;;;;;;;;;-2.90;99.58;94726.50;5094968;28;19969;-74
2022/12/14 07:39:05;;;;;;;;;;;;;;;-2.84;99.26;94723.22;5094995;28;19956;-74
2022/12/14 07:41:31;;;;;;;;;;;;;;;-2.78;99.41;94707.13;5094800;28;20014;-74
2022/12/14 07:43:58;;;;;;;;;;;;;;;-2.74;99.56;94697.31;5094839;28;20397;-74
2022/12/14 07:46:25;;;;;;;;;;;;;;;-2.74;98.81;94703.25;5094618;28;20032;-74
2022/12/14 07:48:52;;;;;;;;;;;;;;;-2.70;98.92;94706.25;5095193;28;19974;-74
2022/12/14 07:51:19;;;;;;;;;;;;;;;-2.66;99.20;94710.06;5094525;28;19948;-74
2022/12/14 07:53:45;;;;;;;;;;;;;;;-2.62;99.76;94706.16;5094740;28;19969;-74
2022/12/14 07:56:13;;;;;;;;;;;;;;;-2.57;99.75;94696.13;5094783;28;19959;-76
2022/12/14 07:58:39;;;;;;;;;;;;;;;-2.54;100.00;94700.94;5079117;28;19966;-74
2022/12/14 08:01:08;;;;;;;;;;;;;;;-2.49;99.65;94703.75;5094256;28;19949;-74
2022/12/14 08:03:34;;;;;;;;;;;;;;;-2.46;99.99;94707.72;5094831;28;19945;-74
2022/12/14 08:06:02;;;;;;;;;;;;;;;-2.41;100.00;94700.28;5094335;28;19953;-74
2022/12/14 08:08:28;;;;;;;;;;;;;;;-2.36;100.00;94692.03;5094133;28;19957;-74
2022/12/14 08:10:54;;;;;;;;;;;;;;;-2.33;100.00;94695.03;5094334;28;20001;-74
2022/12/14 08:13:20;;;;;;;;;;;;;;;-2.30;100.00;94692.09;5094657;28;19949;-74
2022/12/14 08:15:45;;;;;;;;;;;;;;;-2.27;100.00;94689.19;5094132;28;19951;-74
2022/12/14 08:18:11;;;;;;;;;;;;;;;-2.23;100.00;94687.03;5094087;28;19971;-75
2022/12/14 08:20:37;;;;;;;;;;;;;;;-2.19;100.00;94695.19;5093989;28;20364;-74
2022/12/14 08:23:03;;;;;;;;;;;;;;;-2.16;100.00;94689.66;5094131;28;20296;-74
2022/12/14 08:25:29;;;;;;;;;;;;;;;-2.13;100.00;94702.16;5092711;28;19954;-74
2022/12/14 08:27:55;;;;;;;;;;;;;;;-2.12;100.00;94701.16;5093809;28;20453;-75
2022/12/14 08:30:21;;;;;;;;;;;;;;;-2.10;100.00;94699.22;5094620;28;19954;-74
2022/12/14 08:32:47;;;;;;;;;;;;;;;-2.14;100.00;94693.66;5093789;28;19993;-74
2022/12/14 08:35:13;;;;;;;;;;;;;;;-2.21;100.00;94699.69;5094348;28;19959;-74
2022/12/14 08:37:38;;;;;;;;;;;;;;;-2.24;100.00;94706.00;5092699;28;19979;-74
2022/12/14 08:40:05;;;;;;;;;;;;;;;-2.23;100.00;94691.38;5093818;28;19985;-74
2022/12/14 08:42:30;;;;;;;;;;;;;;;-2.21;100.00;94692.00;5092496;28;20316;-74
2022/12/14 08:44:56;;;;;;;;;;;;;;;-2.19;100.00;94679.78;5093208;28;20014;-76
2022/12/14 08:47:22;;;;;;;;;;;;;;;-2.23;100.00;94674.19;5093667;28;20301;-74
2022/12/14 08:49:48;;;;;;;;;;;;;;;-2.23;100.00;94681.09;5092551;28;19968;-74
2022/12/14 08:52:15;;;;;;;;;;;;;;;-2.19;100.00;94683.13;5093959;28;20465;-74
2022/12/14 08:54:41;;;;;;;;;;;;;;;-2.17;100.00;94678.59;5092480;28;19958;-74
2022/12/14 08:57:06;;;;;;;;;;;;;;;-2.16;100.00;94681.97;5093874;28;19990;-74
2022/12/14 08:59:32;;;;;;;;;;;;;;;-2.15;100.00;94691.25;5093572;28;19954;-74
2022/12/14 09:01:58;;;;;;;;;;;;;;;-2.13;100.00;94674.69;5093624;28;20316;-74
2022/12/14 09:04:25;;;;;;;;;;;;;;;-2.08;100.00;94679.28;5093677;28;19945;-74
2022/12/14 09:06:50;;;;;;;;;;;;;;;-2.02;100.00;94686.25;5092163;28;19953;-74
2022/12/14 09:09:16;;;;;;;;;;;;;;;-1.93;100.00;94687.75;5093444;28;19975;-74
2022/12/14 09:11:43;;;;;;;;;;;;;;;-1.94;100.00;94686.13;5093804;28;20003;-74
2022/12/14 09:14:09;;;;;;;;;;;;;;;-1.96;100.00;94677.81;5093685;28;19968;-73
2022/12/14 09:16:35;;;;;;;;;;;;;;;-2.02;100.00;94680.31;5093794;28;19949;-74
2022/12/14 09:19:01;;;;;;;;;;;;;;;-2.10;100.00;94674.34;5093827;28;20036;-73
2022/12/14 09:21:27;;;;;;;;;;;;;;;-2.12;100.00;94675.47;5092118;28;20404;-74
2022/12/14 09:23:53;;;;;;;;;;;;;;;-2.09;100.00;94685.41;5093355;28;19949;-73
2022/12/14 09:26:20;;;;;;;;;;;;;;;-2.07;100.00;94683.44;5092194;28;19961;-73
2022/12/14 09:28:48;;;;;;;;;;;;;;;-2.08;100.00;94682.66;5093683;28;20333;-73
2022/12/14 09:31:16;;;;;;;;;;;;;;;-2.08;100.00;94685.22;5092000;28;19946;-73
2022/12/14 09:33:42;;;;;;;;;;;;;;;-2.03;100.00;94689.03;5093067;28;19953;-73
2022/12/14 09:36:12;;;;;;;;;;;;;;;-1.98;100.00;94694.41;5093524;28;20300;-73
2022/12/14 09:38:39;;;;;;;;;;;;;;;-1.96;100.00;94688.09;5093116;28;19974;-73
2022/12/14 09:41:06;;;;;;;;;;;;;;;-1.91;100.00;94685.78;5093299;28;19951;-73
2022/12/14 09:43:37;;;;;;;;;;;;;;;-1.86;100.00;94675.75;5092982;28;19944;-73
2022/12/14 09:46:18;;;;;;;;;;;;;;;-1.84;100.00;94678.13;5093210;28;19951;-73
2022/12/14 09:48:44;;;;;;;;;;;;;;;-1.85;100.00;94682.47;5092977;28;19954;-73
2022/12/14 09:51:13;;;;;;;;;;;;;;;-1.86;100.00;94680.09;5093038;28;19959;-73
2022/12/14 09:53:40;;;;;;;;;;;;;;;-1.89;100.00;94675.31;5093432;28;19957;-73
2022/12/14 09:56:09;;;;;;;;;;;;;;;-1.87;100.00;94663.88;5095028;28;20072;-73
2022/12/14 09:58:35;;;;;;;;;;;;;;;-1.80;100.00;94665.72;5097180;28;19957;-73
2022/12/14 10:01:21;;;;;;;;;;;;;;;-1.76;100.00;94667.72;5095669;28;19952;-73
2022/12/14 10:04:05;;;;;;;;;;;;;;;-1.72;100.00;94663.00;5096588;28;20444;-73
2022/12/14 10:06:38;;;;;;;;;;;;;;;-1.68;100.00;94653.94;5096582;28;19956;-73
2022/12/14 10:09:22;;;;;;;;;;;;;;;-1.64;100.00;94650.84;5096892;28;20309;-73
2022/12/14 10:11:55;;;;;;;;;;;;;;;-1.57;100.00;94647.53;5096364;28;19950;-73
2022/12/14 10:14:21;;;;;;;;;;;;;;;-1.51;100.00;94650.13;5096632;28;19946;-73
2022/12/14 10:16:55;;;;;;;;;;;;;;;-1.47;100.00;94648.78;5096344;28;19954;-73
2022/12/14 10:19:39;;;;;;;;;;;;;;;-1.42;100.00;94650.78;5096961;28;19949;-73
2022/12/14 10:22:08;;;;;;;;;;;;;;;-1.37;100.00;94645.06;5095012;28;19950;-73
2022/12/14 10:24:41;;;;;;;;;;;;;;;-1.36;100.00;94644.09;5096229;28;19957;-73
2022/12/14 10:27:08;;;;;;;;;;;;;;;-1.35;100.00;94638.75;5096265;28;19973;-73
2022/12/14 10:29:49;;;;;;;;;;;;;;;-1.32;100.00;94632.47;5096234;28;19965;-73
2022/12/14 10:32:29;;;;;;;;;;;;;;;-1.32;100.00;94622.19;5096332;28;19944;-73
2022/12/14 10:34:55;;;;;;;;;;;;;;;-1.29;100.00;94634.66;5095126;28;19954;-74
2022/12/14 10:37:36;;;;;;;;;;;;;;;-1.25;100.00;94630.72;5095971;28;19973;-74
2022/12/14 10:40:12;;;;;;;;;;;;;;;-1.26;100.00;94629.94;5096536;28;19961;-74
2022/12/14 10:42:38;;;;;;;;;;;;;;;-1.26;100.00;94626.53;5096446;28;19957;-74
2022/12/14 10:45:07;;;;;;;;;;;;;;;-1.24;100.00;94633.09;5095926;28;19942;-74
2022/12/14 10:47:36;;;;;;;;;;;;;;;-1.20;100.00;94628.34;5096414;28;20410;-74
2022/12/14 10:50:08;;;;;;;;;;;;;;;-1.16;100.00;94637.28;5095808;28;19950;-74
2022/12/14 10:52:36;;;;;;;;;;;;;;;-1.16;100.00;94633.91;5095718;28;19948;-74
2022/12/14 10:55:08;;;;;;;;;;;;;;;-1.12;100.00;94637.69;5095746;28;19948;-74
2022/12/14 10:57:34;;;;;;;;;;;;;;;-1.10;100.00;94638.31;5094317;28;19963;-74
2022/12/14 11:00:00;;;;;;;;;;;;;;;-1.07;100.00;94646.44;5095640;28;20022;-74
2022/12/14 11:02:27;;;;;;;;;;;;;;;-1.07;100.00;94643.06;5095903;28;19957;-74
2022/12/14 11:04:58;;;;;;;;;;;;;;;-1.10;100.00;94641.66;5094352;28;19946;-74
2022/12/14 11:07:25;;;;;;;;;;;;;;;-1.11;100.00;94645.25;5094903;28;19951;-74
2022/12/14 11:09:51;;;;;;;;;;;;;;;-1.11;100.00;94645.25;5095496;28;20336;-74
2022/12/14 11:12:23;;;;;;;;;;;;;;;-1.10;100.00;94638.31;5085793;28;19950;-74
2022/12/14 11:14:54;;;;;;;;;;;;;;;-1.12;100.00;94637.69;5093966;28;19965;-74
2022/12/14 11:17:40;;;;;;;;;;;;;;;-1.12;100.00;94637.69;5095651;28;19944;-74
2022/12/14 11:20:12;;;;;;;;;;;;;;;-1.12;100.00;94637.69;5095129;28;19974;-74
2022/12/14 11:22:45;;;;;;;;;;;;;;;-1.12;100.00;94641.06;5077196;28;20347;-74
2022/12/14 11:25:30;;;;;;;;;;;;;;;-1.10;100.00;94636.53;5093781;28;19950;-74
2022/12/14 11:28:02;;;;;;;;;;;;;;;-1.10;100.00;94639.09;5094919;28;19959;-74
2022/12/14 11:30:28;;;;;;;;;;;;;;;-1.05;100.00;94639.34;5093916;28;19959;-74
2022/12/14 11:32:54;;;;;;;;;;;;;;;-1.00;100.00;94630.25;5095002;28;19940;-74
2022/12/14 11:35:20;;;;;;;;;;;;;;;-0.98;100.00;94631.66;5093806;28;20019;-74
2022/12/14 11:37:49;;;;;;;;;;;;;;;-0.95;100.00;94626.09;5095636;28;19968;-74
2022/12/14 11:40:21;;;;;;;;;;;;;;;-0.91;100.00;94622.16;5094747;28;20409;-74
2022/12/14 11:42:48;;;;;;;;;;;;;;;-0.90;100.00;94620.41;5094819;28;20416;-74
2022/12/14 11:45:32;;;;;;;;;;;;;;;-0.88;100.00;94621.00;5093538;28;19954;-74
2022/12/14 11:48:09;;;;;;;;;;;;;;;-0.88;100.00;94611.50;5084410;28;19968;-74
2022/12/14 11:50:35;;;;;;;;;;;;;;;-0.84;100.00;94610.13;5094697;28;19946;-74
2022/12/14 11:53:05;;;;;;;;;;;;;;;-0.78;100.00;94610.34;5094645;28;20002;-74
2022/12/14 11:55:32;;;;;;;;;;;;;;;-0.73;100.00;94610.59;5093207;28;19949;-74
2022/12/14 11:57:59;;;;;;;;;;;;;;;-0.67;100.00;94607.25;5094502;28;19962;-74
2022/12/14 12:00:26;;;;;;;;;;;;;;;-0.59;100.00;94606.25;5093191;28;19958;-74
2022/12/14 12:02:55;;;;;;;;;;;;;;;-0.51;100.00;94611.22;5093100;28;19967;-74
2022/12/14 12:05:22;;;;;;;;;;;;;;;-0.47;100.00;94604.72;5094985;28;19975;-75
2022/12/14 12:07:48;;;;;;;;;;;;;;;-0.43;100.00;94605.91;5094246;28;19955;-74
2022/12/14 12:10:18;;;;;;;;;;;;;;;-0.39;100.00;94609.69;5094477;28;19995;-74
2022/12/14 12:12:47;;;;;;;;;;;;;;;-0.36;100.00;94611.06;5094276;28;19946;-75
2022/12/14 12:15:17;;;;;;;;;;;;;;;-0.32;100.00;94620.00;5094192;28;20325;-74
2022/12/14 12:17:45;;;;;;;;;;;;;;;-0.29;100.00;94619.63;5094203;28;19946;-75
2022/12/14 12:20:37;;;;;;;;;;;;;;;-0.27;100.00;94621.00;5093587;28;19972;-75
2022/12/14 12:23:08;;;;;;;;;;;;;;;-0.21;100.00;94619.41;5061625;28;19951;-75
2022/12/14 12:25:35;;;;;;;;;;;;;;;-0.14;100.00;94625.38;5094288;28;20426;-75
2022/12/14 12:28:04;;;;;;;;;;;;;;;-0.09;100.00;94617.06;5093374;28;19984;-74
2022/12/14 12:30:32;;;;;;;;;;;;;;;-0.05;100.00;94626.78;5093980;28;20404;-75
2022/12/14 12:33:09;;;;;;;;;;;;;;;-0.01;100.00;94627.97;5094150;28;19942;-74
2022/12/14 12:35:39;;;;;;;;;;;;;;;-0.01;100.00;94627.97;5092192;28;19956;-74
2022/12/14 12:38:10;;;;;;;;;;;;;;;0.02;100.00;94634.50;5093694;28;19980;-74
2022/12/14 12:40:39;;;;;;;;;;;;;;;-0.01;100.00;94637.47;5094021;28;19959;-74
2022/12/14 12:43:10;;;;;;;;;;;;;;;-0.01;100.00;94633.13;5093899;28;19945;-74
2022/12/14 12:45:40;;;;;;;;;;;;;;;0.01;100.00;94634.72;5093967;28;19947;-74
2022/12/14 12:48:06;;;;;;;;;;;;;;;0.04;100.00;94639.47;5092615;28;19967;-74
2022/12/14 12:50:37;;;;;;;;;;;;;;;0.05;100.00;94633.34;5092510;28;19951;-74
2022/12/14 12:53:12;;;;;;;;;;;;;;;0.06;100.00;94630.53;5094368;28;19953;-74
2022/12/14 12:55:42;;;;;;;;;;;;;;;0.07;100.00;94616.69;5093888;28;19958;-74
2022/12/14 12:58:13;;;;;;;;;;;;;;;0.08;100.00;94618.25;5093597;28;19958;-74
2022/12/14 13:00:40;;;;;;;;;;;;;;;0.07;100.00;94621.84;5093828;28;19951;-74
2022/12/14 13:03:08;;;;;;;;;;;;;;;0.07;100.00;94633.94;5092423;28;19952;-74
2022/12/14 13:05:37;;;;;;;;;;;;;;;0.03;100.00;94636.09;5094111;28;19946;-74